Etusivu
METAR-TAF:

METAR-TAF

Lentoasemat :

Corinth, Mississippi, Yhdysvallat

Leveyspiiri: 34-54-54N, Pituuspiiri: 088-36-13W, korkeus merenpinnasta: 130 m

Tämänhetkinen sää

Tämä raportti tehtiin 33 minuuttia sitten, kello 16.35 UTC
Tuuli 3 kn eri suunnista
Lämpötila 7°C
Kosteus 36%
Ilmanpaine 1033 hPa
Näkyvyys: 16.1 km
selkeää

METAR: KCRX 221635Z AUTO VRB03KT 10SM CLR 07/M07 A3050 RMK AO2

Aika: 11:08 (17:08 UTC)


TAF: puuttuu

Säähavainnot ja -ennusteet yli 4000 lentoasemalta (METAR- ja TAF-raportit).

Käytössä olevat sääasemat on merkitty karttaan keltaisilla ja punaisilla pisteillä.

Aseta hiiri pisteen päälle nähdäksesi sääaseman nimen.

Klikkaa sitten nähdäksesi säähavainnot ja -ennusteet.

Kartan vaihtaminen: klikkaa mustalla rastilla varustettuja vihreitä pisteitä, niin voit zoomata sisään; viivalla varustettua vihreää pistettä, niin voit zoomata ulos tai vihreitä nuolia, niin pääset viereisille kartoille.


METAR-TAF: